Time;durP1;ratioP1;P1;durP2;ratioP2;P2;SDS_P1;SDS_P2;PMS_P1;PMS_P2;Temp;Humidity;BMP_temperature;BMP_pressure;BME280_temperature;BME280_humidity;BME280_pressure;Samples;Min_cycle;Max_cycle;Signal;HPM_P1;HPM_P2
2022/06/26 00:01:24;;;;;;;13.90;7.55;;;;;;;;;;5051779;28;20040;-74
2022/06/26 00:03:51;;;;;;;15.32;8.07;;;;;;;;;;5085096;28;20378;-74
2022/06/26 00:06:17;;;;;;;15.07;8.63;;;;;;;;;;5050892;28;20071;-74
2022/06/26 00:08:43;;;;;;;18.05;8.35;;;;;;;;;;5034382;28;20044;-74
2022/06/26 00:11:09;;;;;;;14.35;8.90;;;;;;;;;;5051226;28;20481;-74
2022/06/26 00:13:35;;;;;;;14.15;7.90;;;;;;;;;;5050879;28;20513;-74
2022/06/26 00:16:01;;;;;;;13.85;7.70;;;;;;;;;;5084115;28;20041;-74
2022/06/26 00:18:27;;;;;;;14.43;8.05;;;;;;;;;;5050881;28;20045;-74
2022/06/26 00:20:53;;;;;;;16.63;8.00;;;;;;;;;;5051235;28;20056;-74
2022/06/26 00:23:19;;;;;;;15.60;8.32;;;;;;;;;;5050901;28;20546;-74
2022/06/26 00:25:45;;;;;;;18.75;9.35;;;;;;;;;;5050929;28;20071;-75
2022/06/26 00:28:11;;;;;;;16.88;9.60;;;;;;;;;;5083996;28;20489;-74
2022/06/26 00:30:37;;;;;;;13.68;8.07;;;;;;;;;;5050974;28;20497;-74
2022/06/26 00:33:04;;;;;;;16.92;8.95;;;;;;;;;;5050222;28;20566;-74
2022/06/26 00:35:30;;;;;;;18.38;10.13;;;;;;;;;;5051076;28;20468;-75
2022/06/26 00:37:56;;;;;;;15.90;9.68;;;;;;;;;;5050906;28;20481;-75
2022/06/26 00:40:22;;;;;;;18.20;9.60;;;;;;;;;;5050188;28;20044;-74
2022/06/26 00:42:48;;;;;;;12.48;8.15;;;;;;;;;;5051751;28;20120;-74
2022/06/26 00:45:14;;;;;;;17.13;9.57;;;;;;;;;;5050381;28;20549;-74
2022/06/26 00:47:41;;;;;;;15.18;9.65;;;;;;;;;;5051871;28;20037;-74
2022/06/26 00:50:08;;;;;;;15.32;8.85;;;;;;;;;;5050122;28;20036;-73
2022/06/26 00:52:34;;;;;;;14.43;9.30;;;;;;;;;;5083703;28;20049;-74
2022/06/26 00:55:01;;;;;;;13.30;9.18;;;;;;;;;;5049907;28;20103;-74
2022/06/26 00:57:28;;;;;;;13.18;8.32;;;;;;;;;;5050310;28;20049;-74
2022/06/26 00:59:55;;;;;;;13.85;6.80;;;;;;;;;;5050238;28;20059;-74
2022/06/26 01:02:22;;;;;;;15.73;8.27;;;;;;;;;;5050089;28;20043;-74
2022/06/26 01:04:48;;;;;;;11.82;7.90;;;;;;;;;;5049772;28;20094;-74
2022/06/26 01:07:14;;;;;;;10.48;6.75;;;;;;;;;;5033168;28;20045;-74
2022/06/26 01:09:41;;;;;;;13.30;7.35;;;;;;;;;;5050477;28;20536;-74
2022/06/26 01:12:07;;;;;;;14.88;7.78;;;;;;;;;;5049646;28;20056;-74
2022/06/26 01:14:33;;;;;;;11.80;7.20;;;;;;;;;;5049755;28;20033;-74
2022/06/26 01:16:59;;;;;;;11.48;7.05;;;;;;;;;;5049654;28;20037;-74
2022/06/26 01:19:26;;;;;;;12.85;7.10;;;;;;;;;;5016475;28;20448;-75
2022/06/26 01:21:52;;;;;;;13.43;6.80;;;;;;;;;;5072596;28;20049;-75
2022/06/26 01:24:18;;;;;;;12.18;6.82;;;;;;;;;;5080099;28;20374;-74
2022/06/26 01:26:44;;;;;;;13.15;6.63;;;;;;;;;;5049805;28;20044;-74
2022/06/26 01:29:10;;;;;;;15.30;6.72;;;;;;;;;;5048885;28;20041;-73
2022/06/26 01:31:36;;;;;;;9.30;5.47;;;;;;;;;;5050096;28;20040;-74
2022/06/26 01:34:04;;;;;;;13.63;6.38;;;;;;;;;;5049821;28;20040;-74
2022/06/26 01:36:30;;;;;;;10.75;6.03;;;;;;;;;;5032612;28;20119;-74
2022/06/26 01:38:56;;;;;;;11.23;6.60;;;;;;;;;;5033361;28;20733;-75
2022/06/26 01:41:22;;;;;;;9.27;6.50;;;;;;;;;;5050730;28;20040;-74
2022/06/26 01:43:48;;;;;;;9.98;6.00;;;;;;;;;;5050125;28;20053;-74
2022/06/26 01:46:14;;;;;;;9.60;5.97;;;;;;;;;;5049538;28;20037;-74
2022/06/26 01:48:41;;;;;;;10.10;5.63;;;;;;;;;;5049405;28;20048;-74
2022/06/26 01:51:07;;;;;;;10.70;5.43;;;;;;;;;;5049607;28;20041;-74
2022/06/26 01:53:34;;;;;;;10.13;5.43;;;;;;;;;;5048811;28;20053;-74
2022/06/26 01:56:01;;;;;;;8.02;5.20;;;;;;;;;;5049796;28;20037;-75
2022/06/26 01:58:27;;;;;;;8.63;4.70;;;;;;;;;;5049282;28;20503;-75
2022/06/26 02:00:53;;;;;;;7.05;4.70;;;;;;;;;;5047360;28;20505;-75
2022/06/26 02:03:21;;;;;;;9.57;4.35;;;;;;;;;;5044610;28;20045;-75
2022/06/26 02:05:47;;;;;;;7.07;4.20;;;;;;;;;;5032556;28;20059;-74
2022/06/26 02:08:13;;;;;;;7.13;4.03;;;;;;;;;;5052885;28;20072;-75
2022/06/26 02:13:36;;;;;;;7.68;4.18;;;;;;;;;;5038805;28;20378;-75
2022/06/26 02:16:22;;;;;;;6.82;3.80;;;;;;;;;;5053594;28;20570;-75
2022/06/26 02:18:49;;;;;;;8.02;4.20;;;;;;;;;;5050518;28;20037;-73
2022/06/26 02:21:17;;;;;;;6.93;4.05;;;;;;;;;;5052892;28;20036;-75
2022/06/26 02:23:43;;;;;;;6.50;4.18;;;;;;;;;;5053533;28;20557;-75
2022/06/26 02:26:10;;;;;;;8.90;4.30;;;;;;;;;;5036822;28;20033;-75
2022/06/26 02:28:37;;;;;;;6.18;4.03;;;;;;;;;;5052866;28;20045;-75
2022/06/26 02:31:03;;;;;;;5.13;3.55;;;;;;;;;;5052442;28;20045;-75
2022/06/26 02:33:29;;;;;;;6.93;3.90;;;;;;;;;;5051486;28;20048;-74
2022/06/26 02:35:56;;;;;;;6.35;3.53;;;;;;;;;;5052861;28;20072;-75
2022/06/26 02:38:23;;;;;;;5.65;3.33;;;;;;;;;;5052659;28;20037;-74
2022/06/26 02:40:49;;;;;;;5.00;3.38;;;;;;;;;;5019841;28;20037;-74
2022/06/26 02:43:16;;;;;;;4.15;3.03;;;;;;;;;;5052702;28;20079;-74
2022/06/26 02:45:42;;;;;;;4.38;3.03;;;;;;;;;;5052931;28;20037;-75
2022/06/26 02:48:08;;;;;;;4.60;3.00;;;;;;;;;;5052908;28;20040;-74
2022/06/26 02:50:34;;;;;;;4.90;3.00;;;;;;;;;;5052613;28;20397;-74
2022/06/26 02:53:00;;;;;;;4.40;2.90;;;;;;;;;;5052603;28;20060;-75
2022/06/26 02:55:27;;;;;;;3.85;2.78;;;;;;;;;;5051933;28;20448;-74
2022/06/26 02:57:53;;;;;;;4.68;3.10;;;;;;;;;;5036088;28;20114;-74
2022/06/26 03:00:19;;;;;;;5.28;3.30;;;;;;;;;;5052577;28;20044;-75
2022/06/26 03:02:45;;;;;;;4.07;2.97;;;;;;;;;;5053864;28;20053;-75
2022/06/26 03:05:11;;;;;;;5.35;3.00;;;;;;;;;;5052618;28;20041;-75
2022/06/26 03:07:37;;;;;;;3.92;3.35;;;;;;;;;;5052020;28;20963;-74
2022/06/26 03:10:03;;;;;;;4.32;3.47;;;;;;;;;;5052246;28;20041;-75
2022/06/26 03:12:29;;;;;;;5.47;3.50;;;;;;;;;;5035371;28;20080;-75
2022/06/26 03:14:56;;;;;;;5.18;3.50;;;;;;;;;;5053776;28;20493;-74
2022/06/26 03:17:22;;;;;;;5.05;3.15;;;;;;;;;;5052529;28;20045;-74
2022/06/26 03:19:48;;;;;;;4.78;3.20;;;;;;;;;;5053153;28;20040;-74
2022/06/26 03:22:14;;;;;;;5.28;3.70;;;;;;;;;;5053838;28;20052;-74
2022/06/26 03:24:40;;;;;;;5.45;3.80;;;;;;;;;;5053016;28;20480;-74
2022/06/26 03:27:06;;;;;;;4.47;3.70;;;;;;;;;;5052331;28;20047;-74
2022/06/26 03:29:32;;;;;;;7.22;3.58;;;;;;;;;;5051293;28;20036;-74
2022/06/26 03:31:58;;;;;;;6.82;3.92;;;;;;;;;;5051712;28;20055;-74
2022/06/26 03:34:24;;;;;;;6.65;3.78;;;;;;;;;;5053001;28;20084;-73
2022/06/26 03:36:50;;;;;;;6.07;3.75;;;;;;;;;;5051831;28;20405;-75
2022/06/26 03:39:16;;;;;;;6.05;3.97;;;;;;;;;;5051721;28;20063;-75
2022/06/26 03:41:57;;;;;;;5.95;4.50;;;;;;;;;;5051267;28;20516;-74
2022/06/26 03:44:23;;;;;;;5.68;4.00;;;;;;;;;;5051812;28;20127;-74
2022/06/26 03:46:49;;;;;;;6.60;4.30;;;;;;;;;;5051828;28;20532;-74
2022/06/26 03:49:15;;;;;;;6.50;4.03;;;;;;;;;;5051951;28;20490;-75
2022/06/26 03:51:41;;;;;;;8.05;4.90;;;;;;;;;;5052038;28;20481;-75
2022/06/26 03:54:08;;;;;;;7.38;5.18;;;;;;;;;;5051481;28;20088;-75
2022/06/26 03:56:34;;;;;;;8.00;4.90;;;;;;;;;;5052806;28;20048;-75
2022/06/26 03:59:00;;;;;;;8.02;4.90;;;;;;;;;;5034889;28;20083;-75
2022/06/26 04:01:26;;;;;;;7.30;5.30;;;;;;;;;;5046299;28;20040;-76
2022/06/26 04:03:52;;;;;;;7.65;5.28;;;;;;;;;;5050981;28;20481;-74
2022/06/26 04:06:18;;;;;;;8.82;5.63;;;;;;;;;;5050649;28;20060;-74
2022/06/26 04:08:44;;;;;;;7.53;5.60;;;;;;;;;;5050913;28;20441;-74
2022/06/26 04:11:10;;;;;;;7.93;5.90;;;;;;;;;;5052675;28;20044;-74
2022/06/26 04:13:36;;;;;;;8.73;5.75;;;;;;;;;;5050550;28;20063;-74
2022/06/26 04:16:02;;;;;;;7.70;5.90;;;;;;;;;;5050807;28;20033;-75
2022/06/26 04:18:28;;;;;;;8.05;5.70;;;;;;;;;;5051813;28;20040;-74
2022/06/26 04:20:54;;;;;;;9.05;6.03;;;;;;;;;;5051191;28;20055;-75
2022/06/26 04:23:20;;;;;;;7.22;5.57;;;;;;;;;;5051083;28;20048;-75
2022/06/26 04:25:46;;;;;;;9.38;6.78;;;;;;;;;;5051788;28;20040;-75
2022/06/26 04:28:12;;;;;;;8.18;6.18;;;;;;;;;;5033869;28;20497;-75
2022/06/26 04:30:38;;;;;;;9.88;7.00;;;;;;;;;;5050537;28;20072;-75
2022/06/26 04:33:05;;;;;;;10.15;6.88;;;;;;;;;;5050761;28;20068;-75
2022/06/26 04:35:31;;;;;;;10.90;7.72;;;;;;;;;;5034172;28;20485;-74
2022/06/26 04:37:57;;;;;;;10.55;7.82;;;;;;;;;;5051704;28;20532;-75
2022/06/26 04:40:23;;;;;;;12.00;8.27;;;;;;;;;;5050337;28;20029;-75
2022/06/26 04:42:49;;;;;;;12.55;8.38;;;;;;;;;;5033728;28;20053;-75
2022/06/26 04:45:15;;;;;;;11.73;9.02;;;;;;;;;;5050606;28;20124;-75
2022/06/26 04:47:41;;;;;;;13.13;9.65;;;;;;;;;;5017488;28;20489;-74
2022/06/26 04:50:08;;;;;;;13.55;9.48;;;;;;;;;;5050332;28;20052;-74
2022/06/26 04:52:34;;;;;;;11.68;9.75;;;;;;;;;;5049466;28;20053;-75
2022/06/26 04:55:00;;;;;;;14.88;11.27;;;;;;;;;;5050778;28;20485;-74
2022/06/26 04:57:26;;;;;;;13.70;11.45;;;;;;;;;;5050818;28;20502;-74
2022/06/26 04:59:53;;;;;;;16.30;12.15;;;;;;;;;;5049813;28;20037;-75
2022/06/26 05:02:19;;;;;;;15.30;12.63;;;;;;;;;;5050238;28;20378;-74
2022/06/26 05:04:46;;;;;;;19.08;13.10;;;;;;;;;;5049941;28;20424;-74
2022/06/26 05:07:12;;;;;;;17.00;13.75;;;;;;;;;;5050048;28;20045;-75
2022/06/26 05:09:38;;;;;;;20.40;14.38;;;;;;;;;;5033662;28;20481;-74
2022/06/26 05:12:04;;;;;;;19.85;14.23;;;;;;;;;;5066433;28;20056;-74
2022/06/26 05:14:30;;;;;;;19.20;14.57;;;;;;;;;;5050077;28;20041;-74
2022/06/26 05:16:56;;;;;;;18.50;13.88;;;;;;;;;;5049744;28;20041;-74
2022/06/26 05:19:22;;;;;;;17.50;13.63;;;;;;;;;;5049979;28;20076;-75
2022/06/26 05:21:48;;;;;;;18.63;14.23;;;;;;;;;;5049767;28;20044;-74
2022/06/26 05:24:14;;;;;;;19.40;14.15;;;;;;;;;;5066699;28;20114;-74
2022/06/26 05:26:41;;;;;;;21.58;14.60;;;;;;;;;;5040712;28;20148;-74
2022/06/26 05:29:07;;;;;;;18.75;14.13;;;;;;;;;;5045001;28;20140;-75
2022/06/26 05:31:33;;;;;;;16.98;13.93;;;;;;;;;;5050076;28;20045;-76
2022/06/26 05:33:59;;;;;;;19.02;14.38;;;;;;;;;;5050979;28;20456;-75
2022/06/26 05:36:25;;;;;;;19.10;13.88;;;;;;;;;;5049854;28;20557;-75
2022/06/26 05:38:51;;;;;;;21.55;14.77;;;;;;;;;;5083253;28;20041;-75
2022/06/26 05:41:17;;;;;;;23.73;14.68;;;;;;;;;;5049685;28;20123;-74
2022/06/26 05:43:44;;;;;;;19.65;14.52;;;;;;;;;;5049387;28;20071;-74
2022/06/26 05:46:11;;;;;;;20.20;14.25;;;;;;;;;;5050106;28;20505;-74
2022/06/26 05:48:37;;;;;;;21.75;14.93;;;;;;;;;;5048964;28;20183;-74
2022/06/26 05:51:03;;;;;;;19.80;14.88;;;;;;;;;;5032935;28;20397;-74
2022/06/26 05:53:29;;;;;;;20.58;14.20;;;;;;;;;;5082876;28;20064;-74
2022/06/26 05:55:56;;;;;;;19.40;14.40;;;;;;;;;;5049635;28;20515;-74
2022/06/26 05:58:23;;;;;;;17.20;13.10;;;;;;;;;;5049375;28;20045;-74
2022/06/26 06:00:49;;;;;;;19.13;14.27;;;;;;;;;;5018841;28;20424;-74
2022/06/26 06:03:15;;;;;;;18.67;13.63;;;;;;;;;;5050767;28;20588;-74
2022/06/26 06:05:41;;;;;;;19.73;14.10;;;;;;;;;;5033006;28;20481;-74
2022/06/26 06:08:07;;;;;;;19.08;13.48;;;;;;;;;;5049764;28;20516;-74
2022/06/26 06:10:33;;;;;;;22.75;13.77;;;;;;;;;;5032809;28;20098;-72
2022/06/26 06:13:01;;;;;;;18.95;14.18;;;;;;;;;;5048655;28;20087;-72
2022/06/26 06:15:27;;;;;;;17.77;12.65;;;;;;;;;;5049417;28;20049;-73
2022/06/26 06:17:53;;;;;;;17.75;13.68;;;;;;;;;;5049130;28;20040;-72
2022/06/26 06:20:20;;;;;;;16.10;13.00;;;;;;;;;;5048991;28;20045;-72
2022/06/26 06:22:48;;;;;;;17.38;13.65;;;;;;;;;;5048619;28;20041;-73
2022/06/26 06:25:14;;;;;;;19.70;14.38;;;;;;;;;;5049305;28;20098;-72
2022/06/26 06:27:40;;;;;;;17.65;12.55;;;;;;;;;;5050607;28;20079;-72
2022/06/26 06:30:07;;;;;;;17.42;13.25;;;;;;;;;;5049399;28;20171;-73
2022/06/26 06:32:33;;;;;;;17.63;13.07;;;;;;;;;;5048885;28;20064;-72
2022/06/26 06:34:59;;;;;;;21.40;12.82;;;;;;;;;;5048578;28;20041;-73
2022/06/26 06:37:25;;;;;;;17.80;12.75;;;;;;;;;;5050352;28;20040;-72
2022/06/26 06:39:52;;;;;;;15.40;11.85;;;;;;;;;;5048677;28;20044;-72
2022/06/26 06:42:18;;;;;;;17.98;12.27;;;;;;;;;;5049561;28;20103;-73
2022/06/26 06:44:44;;;;;;;17.85;12.30;;;;;;;;;;5048533;28;20120;-73
2022/06/26 06:47:12;;;;;;;15.95;11.48;;;;;;;;;;5049132;28;20040;-73
2022/06/26 06:49:38;;;;;;;17.30;10.95;;;;;;;;;;5049371;28;20531;-73
2022/06/26 06:52:04;;;;;;;13.27;10.65;;;;;;;;;;5049154;28;20057;-73
2022/06/26 06:54:31;;;;;;;16.48;10.98;;;;;;;;;;5052672;28;20059;-74
2022/06/26 06:56:57;;;;;;;13.77;10.43;;;;;;;;;;5052036;28;20119;-73
2022/06/26 06:59:23;;;;;;;13.65;10.75;;;;;;;;;;5052444;28;20120;-73
2022/06/26 07:01:50;;;;;;;12.38;8.82;;;;;;;;;;5052243;28;20087;-73
2022/06/26 07:04:16;;;;;;;12.95;8.57;;;;;;;;;;5052778;28;20436;-73
2022/06/26 07:06:42;;;;;;;12.40;8.70;;;;;;;;;;5035656;28;20120;-73
2022/06/26 07:09:08;;;;;;;8.15;6.22;;;;;;;;;;5053004;28;20506;-73
2022/06/26 07:11:34;;;;;;;8.63;5.95;;;;;;;;;;5052376;28;20499;-73
2022/06/26 07:14:00;;;;;;;6.05;4.10;;;;;;;;;;5051927;28;20044;-73
2022/06/26 07:16:27;;;;;;;7.18;4.10;;;;;;;;;;5035790;28;20060;-73
2022/06/26 07:18:53;;;;;;;6.45;4.30;;;;;;;;;;5051372;28;20155;-73
2022/06/26 07:21:19;;;;;;;9.10;4.65;;;;;;;;;;5051903;28;20116;-73
2022/06/26 07:23:45;;;;;;;6.25;4.50;;;;;;;;;;5052391;28;20405;-74
2022/06/26 07:26:11;;;;;;;7.30;5.40;;;;;;;;;;5051864;28;20121;-74
2022/06/26 07:28:37;;;;;;;7.00;5.10;;;;;;;;;;5052168;28;20044;-74
2022/06/26 07:31:03;;;;;;;7.93;5.55;;;;;;;;;;5034938;28;20510;-74
2022/06/26 07:36:14;;;;;;;9.52;5.95;;;;;;;;;;5051953;28;20033;-73
2022/06/26 07:38:40;;;;;;;7.13;5.38;;;;;;;;;;5052130;28;20545;-74
2022/06/26 07:41:09;;;;;;;9.65;5.07;;;;;;;;;;5051644;28;20552;-73
2022/06/26 07:43:35;;;;;;;9.80;4.72;;;;;;;;;;5052387;28;20041;-73
2022/06/26 07:46:01;;;;;;;9.05;5.18;;;;;;;;;;5051995;28;20128;-73
2022/06/26 07:48:27;;;;;;;8.52;4.60;;;;;;;;;;5054468;28;20049;-75
2022/06/26 07:50:53;;;;;;;8.23;4.93;;;;;;;;;;5034503;28;20041;-73
2022/06/26 07:53:21;;;;;;;8.50;5.50;;;;;;;;;;5051530;28;20103;-73
2022/06/26 07:55:47;;;;;;;6.90;5.22;;;;;;;;;;5053270;28;20362;-73
2022/06/26 07:58:13;;;;;;;7.03;5.45;;;;;;;;;;5051579;28;20045;-73
2022/06/26 08:00:39;;;;;;;8.85;6.55;;;;;;;;;;5052906;28;20052;-73
2022/06/26 08:03:09;;;;;;;8.70;7.28;;;;;;;;;;5050845;28;20119;-73
2022/06/26 08:05:36;;;;;;;8.45;6.57;;;;;;;;;;5051235;28;20040;-73
2022/06/26 08:08:02;;;;;;;6.65;4.85;;;;;;;;;;5051336;28;20119;-73
2022/06/26 08:10:28;;;;;;;8.40;4.18;;;;;;;;;;5034757;28;20090;-73
2022/06/26 08:12:55;;;;;;;5.45;3.60;;;;;;;;;;5052247;28;20051;-73
2022/06/26 08:15:21;;;;;;;5.60;3.35;;;;;;;;;;5050791;28;20125;-73
2022/06/26 08:17:47;;;;;;;4.97;3.10;;;;;;;;;;5050957;28;20032;-73
2022/06/26 08:20:13;;;;;;;5.82;3.05;;;;;;;;;;5034669;28;20128;-73
2022/06/26 08:22:39;;;;;;;4.00;2.70;;;;;;;;;;5050967;28;20079;-73
2022/06/26 08:25:06;;;;;;;5.22;2.65;;;;;;;;;;5050756;28;20048;-73
2022/06/26 08:27:32;;;;;;;4.32;3.17;;;;;;;;;;5050923;28;20435;-73
2022/06/26 08:29:58;;;;;;;6.38;4.28;;;;;;;;;;5033665;28;20123;-73
2022/06/26 08:32:24;;;;;;;7.15;4.40;;;;;;;;;;5050844;28;20060;-73
2022/06/26 08:34:50;;;;;;;6.93;3.53;;;;;;;;;;5051115;28;20044;-74
2022/06/26 08:37:17;;;;;;;5.82;4.03;;;;;;;;;;5050984;28;20555;-73
2022/06/26 08:39:43;;;;;;;6.15;4.28;;;;;;;;;;5050125;28;20428;-72
2022/06/26 08:42:10;;;;;;;5.95;3.60;;;;;;;;;;5017203;28;20048;-73
2022/06/26 08:44:39;;;;;;;5.60;3.70;;;;;;;;;;5050497;28;20077;-74
2022/06/26 08:47:06;;;;;;;8.88;3.40;;;;;;;;;;5050104;28;20041;-73
2022/06/26 08:49:32;;;;;;;5.13;2.90;;;;;;;;;;5050235;28;20045;-73
2022/06/26 08:51:59;;;;;;;5.88;2.95;;;;;;;;;;5049412;28;20087;-73
2022/06/26 08:54:27;;;;;;;4.47;3.10;;;;;;;;;;5052054;28;20576;-73
2022/06/26 08:56:54;;;;;;;4.65;3.20;;;;;;;;;;5050962;28;20520;-74
2022/06/26 08:59:20;;;;;;;5.93;3.42;;;;;;;;;;5050121;28;20033;-74
2022/06/26 09:01:46;;;;;;;5.57;3.45;;;;;;;;;;5033521;28;20033;-74
2022/06/26 09:04:13;;;;;;;6.68;4.35;;;;;;;;;;5033488;28;20043;-74
2022/06/26 09:06:40;;;;;;;7.88;4.88;;;;;;;;;;5050305;28;20033;-74
2022/06/26 09:09:16;;;;;;;6.38;4.30;;;;;;;;;;5049805;28;20033;-73
2022/06/26 09:11:43;;;;;;;6.45;4.53;;;;;;;;;;5050044;28;20529;-74
2022/06/26 09:14:10;;;;;;;7.03;4.78;;;;;;;;;;5033080;28;20401;-74
2022/06/26 09:16:39;;;;;;;7.15;4.57;;;;;;;;;;5049780;28;20044;-74
2022/06/26 09:19:13;;;;;;;8.75;4.40;;;;;;;;;;5033428;28;20045;-74
2022/06/26 09:21:40;;;;;;;8.38;4.60;;;;;;;;;;5049943;28;20512;-74
2022/06/26 09:24:09;;;;;;;5.05;3.75;;;;;;;;;;5049489;28;20416;-74
2022/06/26 09:26:35;;;;;;;5.00;3.30;;;;;;;;;;5050094;28;20033;-74
2022/06/26 09:29:08;;;;;;;6.30;2.95;;;;;;;;;;5049543;28;20167;-74
2022/06/26 09:31:36;;;;;;;4.70;2.60;;;;;;;;;;5033554;28;20029;-74
2022/06/26 09:34:02;;;;;;;5.43;2.50;;;;;;;;;;5050374;28;20044;-75
2022/06/26 09:36:28;;;;;;;3.95;2.30;;;;;;;;;;5049653;28;20033;-74
2022/06/26 09:38:54;;;;;;;6.10;2.50;;;;;;;;;;5049918;28;20091;-74
2022/06/26 09:41:34;;;;;;;4.75;2.55;;;;;;;;;;5049260;28;20037;-74
2022/06/26 09:44:01;;;;;;;4.00;2.60;;;;;;;;;;5037618;28;20067;-74
2022/06/26 09:46:31;;;;;;;4.57;2.55;;;;;;;;;;5032598;28;20272;-74
2022/06/26 09:48:58;;;;;;;4.63;2.28;;;;;;;;;;5016682;28;20525;-74
2022/06/26 09:51:24;;;;;;;4.88;2.25;;;;;;;;;;5029422;28;20045;-74
2022/06/26 09:53:51;;;;;;;6.10;2.42;;;;;;;;;;5047850;28;20053;-74
2022/06/26 09:56:18;;;;;;;5.68;3.08;;;;;;;;;;5048873;28;20095;-74
2022/06/26 09:58:44;;;;;;;4.20;2.47;;;;;;;;;;5049842;28;20040;-74
2022/06/26 10:06:43;;;;;;;5.40;2.97;;;;;;;;;;5049516;28;20057;-74
2022/06/26 10:09:09;;;;;;;4.22;3.00;;;;;;;;;;5032623;28;20036;-74
2022/06/26 10:11:37;;;;;;;7.30;2.92;;;;;;;;;;5049587;28;20085;-74
2022/06/26 10:14:03;;;;;;;8.60;3.13;;;;;;;;;;5049400;28;20052;-74
2022/06/26 10:16:48;;;;;;;5.45;2.55;;;;;;;;;;5048721;28;20068;-74
2022/06/26 10:19:36;;;;;;;3.95;2.50;;;;;;;;;;5049353;28;20033;-75
2022/06/26 10:22:02;;;;;;;4.17;2.50;;;;;;;;;;5049100;28;20102;-75
2022/06/26 10:24:28;;;;;;;4.97;2.83;;;;;;;;;;5048680;28;20333;-75
2022/06/26 10:26:58;;;;;;;8.10;2.90;;;;;;;;;;5033303;28;20146;-75
2022/06/26 10:29:43;;;;;;;8.68;2.92;;;;;;;;;;5036448;28;20049;-74
2022/06/26 10:32:09;;;;;;;4.95;2.72;;;;;;;;;;5035803;28;20048;-75
2022/06/26 10:34:35;;;;;;;5.95;3.00;;;;;;;;;;5052985;28;20029;-75
2022/06/26 10:37:04;;;;;;;6.68;3.35;;;;;;;;;;5053360;28;20489;-74
2022/06/26 10:39:42;;;;;;;4.15;2.80;;;;;;;;;;5052594;28;20045;-74
2022/06/26 10:45:01;;;;;;;5.13;2.80;;;;;;;;;;5054047;28;20045;-75
2022/06/26 10:47:39;;;;;;;5.10;2.88;;;;;;;;;;5052499;28;20041;-75
2022/06/26 10:50:05;;;;;;;4.32;2.55;;;;;;;;;;5057391;28;20045;-75
2022/06/26 10:52:32;;;;;;;4.68;2.83;;;;;;;;;;5051109;28;20104;-75
2022/06/26 10:54:59;;;;;;;6.55;3.20;;;;;;;;;;5035850;28;20051;-75
2022/06/26 10:57:32;;;;;;;4.43;3.30;;;;;;;;;;5036141;28;20041;-76
2022/06/26 11:00:06;;;;;;;4.68;3.10;;;;;;;;;;5052212;28;20048;-74
2022/06/26 11:02:36;;;;;;;5.57;3.55;;;;;;;;;;5068473;28;20427;-75
2022/06/26 11:05:03;;;;;;;5.63;3.40;;;;;;;;;;5052642;28;20051;-76
2022/06/26 11:07:39;;;;;;;6.28;3.13;;;;;;;;;;5052306;28;20041;-75
2022/06/26 11:10:08;;;;;;;7.03;3.78;;;;;;;;;;5052091;28;20482;-76
2022/06/26 11:12:45;;;;;;;7.30;3.20;;;;;;;;;;5052050;28;20123;-75
2022/06/26 11:15:34;;;;;;;8.20;4.15;;;;;;;;;;5052367;28;20045;-76
2022/06/26 11:18:01;;;;;;;6.20;3.60;;;;;;;;;;5026857;28;20038;-75
2022/06/26 11:20:47;;;;;;;8.57;4.05;;;;;;;;;;5031761;28;20046;-75
2022/06/26 11:23:14;;;;;;;6.78;3.22;;;;;;;;;;5083808;28;20521;-76
2022/06/26 11:25:41;;;;;;;4.95;3.13;;;;;;;;;;5035483;28;20063;-77
2022/06/26 11:28:08;;;;;;;5.88;3.38;;;;;;;;;;5035312;28;20047;-77
2022/06/26 11:30:35;;;;;;;5.35;3.20;;;;;;;;;;5051467;28;20491;-78
2022/06/26 11:33:01;;;;;;;6.85;3.58;;;;;;;;;;5018483;28;20084;-76
2022/06/26 11:35:27;;;;;;;7.28;3.78;;;;;;;;;;5051888;28;20057;-76
2022/06/26 11:37:53;;;;;;;6.78;3.60;;;;;;;;;;5052152;28;20060;-77
2022/06/26 11:40:22;;;;;;;5.97;3.42;;;;;;;;;;5052736;28;20551;-77
2022/06/26 11:42:54;;;;;;;3.95;3.15;;;;;;;;;;5043351;28;20045;-76
2022/06/26 11:45:21;;;;;;;4.78;3.50;;;;;;;;;;5051494;28;20055;-78
2022/06/26 11:47:47;;;;;;;6.00;3.33;;;;;;;;;;5051426;28;20647;-77
2022/06/26 11:50:21;;;;;;;5.43;3.35;;;;;;;;;;5034257;28;20041;-77
2022/06/26 11:52:53;;;;;;;5.93;2.83;;;;;;;;;;5052414;28;20284;-77
2022/06/26 11:55:19;;;;;;;5.65;2.83;;;;;;;;;;5034048;28;20045;-78
2022/06/26 11:57:46;;;;;;;5.88;3.08;;;;;;;;;;5051538;28;20047;-78
2022/06/26 12:00:12;;;;;;;5.30;3.13;;;;;;;;;;5051724;28;20045;-76
2022/06/26 12:02:46;;;;;;;5.05;2.85;;;;;;;;;;5032824;28;20048;-76
2022/06/26 12:05:12;;;;;;;6.05;3.30;;;;;;;;;;5046716;28;20124;-77
2022/06/26 12:07:46;;;;;;;5.72;3.13;;;;;;;;;;5052311;28;20033;-77
2022/06/26 12:10:12;;;;;;;5.90;3.25;;;;;;;;;;5050559;28;20048;-77
2022/06/26 12:12:48;;;;;;;23.27;4.50;;;;;;;;;;5041114;28;20132;-77
2022/06/26 12:15:15;;;;;;;5.28;3.38;;;;;;;;;;5034537;28;20393;-76
2022/06/26 12:17:42;;;;;;;5.03;3.38;;;;;;;;;;5051740;28;20037;-77
2022/06/26 12:20:10;;;;;;;5.75;3.58;;;;;;;;;;5049289;28;20049;-77
2022/06/26 12:22:36;;;;;;;5.60;3.20;;;;;;;;;;5050008;28;20524;-78
2022/06/26 12:25:03;;;;;;;5.32;3.20;;;;;;;;;;5034580;28;20571;-76
2022/06/26 12:27:39;;;;;;;4.30;2.70;;;;;;;;;;5032299;28;20049;-76
2022/06/26 12:30:29;;;;;;;5.68;3.00;;;;;;;;;;5032891;28;20037;-77
2022/06/26 12:32:56;;;;;;;6.15;2.83;;;;;;;;;;5042821;28;20067;-77
2022/06/26 12:35:22;;;;;;;8.68;2.80;;;;;;;;;;5050477;28;20044;-78
2022/06/26 12:37:49;;;;;;;15.68;3.72;;;;;;;;;;5034376;28;20044;-77
2022/06/26 12:40:15;;;;;;;6.75;3.10;;;;;;;;;;5052062;28;20120;-75
2022/06/26 12:42:41;;;;;;;5.25;2.90;;;;;;;;;;5050245;28;20048;-76
2022/06/26 12:45:08;;;;;;;6.28;3.58;;;;;;;;;;5049922;28;20056;-75
2022/06/26 12:47:34;;;;;;;6.13;3.60;;;;;;;;;;5050203;28;20044;-76
2022/06/26 12:50:00;;;;;;;5.22;3.10;;;;;;;;;;5049560;28;20041;-77
2022/06/26 12:52:26;;;;;;;4.88;2.90;;;;;;;;;;5045382;28;20049;-76
2022/06/26 12:54:52;;;;;;;6.30;3.03;;;;;;;;;;5046198;28;20500;-75
2022/06/26 12:57:18;;;;;;;4.05;2.90;;;;;;;;;;5043933;28;20095;-75
2022/06/26 12:59:44;;;;;;;5.18;3.08;;;;;;;;;;5026837;28;20368;-76
2022/06/26 13:02:11;;;;;;;7.35;2.78;;;;;;;;;;5046591;28;20063;-75
2022/06/26 13:04:37;;;;;;;4.65;2.67;;;;;;;;;;5047766;28;20298;-75
2022/06/26 13:07:04;;;;;;;7.13;2.80;;;;;;;;;;5048054;28;20084;-75
2022/06/26 13:09:30;;;;;;;5.57;2.42;;;;;;;;;;5063421;28;20409;-77
2022/06/26 13:11:56;;;;;;;5.82;2.50;;;;;;;;;;5049008;28;20051;-76
2022/06/26 13:14:22;;;;;;;4.25;2.33;;;;;;;;;;5048596;28;20452;-76
2022/06/26 13:16:48;;;;;;;4.97;2.30;;;;;;;;;;5049310;28;20032;-77
2022/06/26 13:19:14;;;;;;;5.15;2.38;;;;;;;;;;5050164;28;20131;-77
2022/06/26 13:21:40;;;;;;;4.30;2.30;;;;;;;;;;5049216;28;20064;-75
2022/06/26 13:24:07;;;;;;;4.28;2.30;;;;;;;;;;5029523;28;20508;-76
2022/06/26 13:26:33;;;;;;;4.22;2.40;;;;;;;;;;5031112;28;20098;-75
2022/06/26 13:29:00;;;;;;;5.18;2.50;;;;;;;;;;5051226;28;20402;-75
2022/06/26 13:31:26;;;;;;;43.47;5.57;;;;;;;;;;5048938;28;20535;-76
2022/06/26 13:33:52;;;;;;;17.13;3.00;;;;;;;;;;5050324;28;20091;-76
2022/06/26 13:36:18;;;;;;;4.28;2.40;;;;;;;;;;5017066;28;20037;-76
2022/06/26 13:38:44;;;;;;;3.78;2.35;;;;;;;;;;5049176;28;20033;-76
2022/06/26 13:41:10;;;;;;;4.57;2.30;;;;;;;;;;5049749;28;20033;-77
2022/06/26 13:43:37;;;;;;;31.10;4.63;;;;;;;;;;5049995;28;20043;-77
2022/06/26 13:46:03;;;;;;;84.50;9.50;;;;;;;;;;5049965;28;20056;-77
2022/06/26 13:48:29;;;;;;;8.07;2.80;;;;;;;;;;5048006;28;20037;-77
2022/06/26 13:50:55;;;;;;;89.60;10.05;;;;;;;;;;5048995;28;20041;-76
2022/06/26 13:53:21;;;;;;;10.18;3.08;;;;;;;;;;5031702;28;20497;-77
2022/06/26 13:55:50;;;;;;;12.48;3.60;;;;;;;;;;5048831;28;20076;-77
2022/06/26 13:58:20;;;;;;;11.10;3.40;;;;;;;;;;5049092;28;20120;-77
2022/06/26 14:00:46;;;;;;;12.15;3.72;;;;;;;;;;5048206;28;20036;-78
2022/06/26 14:03:12;;;;;;;34.60;5.75;;;;;;;;;;5054192;28;20080;-76
2022/06/26 14:05:39;;;;;;;7.43;3.35;;;;;;;;;;5050784;28;20040;-76
2022/06/26 14:08:05;;;;;;;5.22;3.00;;;;;;;;;;5037669;28;20516;-76
2022/06/26 14:10:31;;;;;;;5.78;3.50;;;;;;;;;;5038104;28;20048;-75
2022/06/26 14:12:57;;;;;;;12.15;3.70;;;;;;;;;;5053144;28;20052;-75
2022/06/26 14:15:36;;;;;;;9.88;3.60;;;;;;;;;;5058486;28;20052;-77
2022/06/26 14:18:02;;;;;;;5.35;3.47;;;;;;;;;;5086300;28;20162;-74
2022/06/26 14:20:28;;;;;;;6.95;4.22;;;;;;;;;;5055159;28;20068;-73
2022/06/26 14:28:24;;;;;;;5.90;4.00;;;;;;;;;;5053771;28;20056;-74
2022/06/26 14:30:50;;;;;;;5.10;3.72;;;;;;;;;;5053145;28;20065;-76
2022/06/26 14:33:16;;;;;;;5.50;3.55;;;;;;;;;;5053619;28;20036;-77
2022/06/26 14:35:43;;;;;;;7.53;3.83;;;;;;;;;;5053402;28;20124;-76
2022/06/26 14:38:09;;;;;;;5.45;3.70;;;;;;;;;;5053473;28;20040;-76
2022/06/26 14:40:36;;;;;;;4.57;3.80;;;;;;;;;;5052964;28;20041;-75
2022/06/26 14:43:02;;;;;;;5.53;4.28;;;;;;;;;;5053665;28;20091;-75
2022/06/26 14:45:41;;;;;;;6.93;3.97;;;;;;;;;;5054122;28;20094;-76
2022/06/26 14:48:07;;;;;;;5.85;4.32;;;;;;;;;;5053676;28;20049;-77
2022/06/26 14:50:33;;;;;;;5.97;3.85;;;;;;;;;;5053530;28;20043;-77
2022/06/26 14:52:59;;;;;;;8.15;4.07;;;;;;;;;;5053118;28;20052;-75
2022/06/26 14:55:25;;;;;;;7.50;3.72;;;;;;;;;;5052749;28;20037;-76